Time;durP1;ratioP1;P1;durP2;ratioP2;P2;SDS_P1;SDS_P2;PMS_P1;PMS_P2;Temp;Humidity;BMP_temperature;BMP_pressure;BME280_temperature;BME280_humidity;BME280_pressure;Samples;Min_cycle;Max_cycle;Signal;HPM_P1;HPM_P2
2023/06/22 00:01:49;;;;;;;;;;;;;;;19.87;65.13;101324.25;5092363;28;19978;-67
2023/06/22 00:04:14;;;;;;;;;;;;;;;19.89;66.44;101328.41;5092745;28;19921;-65
2023/06/22 00:06:40;;;;;;;;;;;;;;;19.89;67.02;101322.16;5092556;28;19920;-66
2023/06/22 00:09:06;;;;;;;;;;;;;;;19.88;66.45;101334.03;5092533;28;19927;-66
2023/06/22 00:11:33;;;;;;;;;;;;;;;19.83;66.81;101315.75;5092351;28;19931;-64
2023/06/22 00:13:58;;;;;;;;;;;;;;;19.78;67.22;101308.25;5092326;28;20013;-67
2023/06/22 00:16:24;;;;;;;;;;;;;;;19.76;66.48;101310.34;5090941;28;19978;-65
2023/06/22 00:18:49;;;;;;;;;;;;;;;19.73;66.87;101299.97;5092699;28;20376;-64
2023/06/22 00:21:14;;;;;;;;;;;;;;;19.72;66.73;101308.28;5092814;28;19920;-65
2023/06/22 00:23:41;;;;;;;;;;;;;;;19.68;67.35;101290.81;5096570;28;19920;-65
2023/06/22 00:26:06;;;;;;;;;;;;;;;19.65;66.77;101307.44;5095162;28;20415;-67
2023/06/22 00:28:31;;;;;;;;;;;;;;;19.58;66.63;101290.41;5096401;28;19920;-64
2023/06/22 00:30:57;;;;;;;;;;;;;;;19.55;67.93;101296.22;5096490;28;19920;-64
2023/06/22 00:33:22;;;;;;;;;;;;;;;19.52;67.16;101285.81;5096457;28;19970;-65
2023/06/22 00:35:47;;;;;;;;;;;;;;;19.47;66.92;101292.66;5096313;28;19967;-67
2023/06/22 00:38:13;;;;;;;;;;;;;;;19.44;67.74;101279.59;5096443;28;19927;-64
2023/06/22 00:40:38;;;;;;;;;;;;;;;19.43;68.72;101286.03;5096398;28;20365;-65
2023/06/22 00:43:04;;;;;;;;;;;;;;;19.42;67.64;101276.25;5096047;28;20393;-64
2023/06/22 00:45:30;;;;;;;;;;;;;;;19.41;67.30;101284.56;5096383;28;19924;-64
2023/06/22 00:47:57;;;;;;;;;;;;;;;19.39;68.26;101281.25;5096186;28;20011;-66
2023/06/22 00:50:26;;;;;;;;;;;;;;;19.36;69.75;101266.25;5096509;28;19924;-65
2023/06/22 00:52:52;;;;;;;;;;;;;;;19.35;69.38;101274.56;5097932;28;19981;-65
2023/06/22 00:55:18;;;;;;;;;;;;;;;19.32;68.96;101275.00;5097231;28;19927;-64
2023/06/22 00:57:47;;;;;;;;;;;;;;;19.28;68.99;101269.19;5096687;28;19927;-66
2023/06/22 01:00:15;;;;;;;;;;;;;;;19.26;70.47;101271.25;5096037;28;19927;-64
2023/06/22 01:02:41;;;;;;;;;;;;;;;19.25;69.46;101275.00;5095996;28;19920;-65
2023/06/22 01:05:06;;;;;;;;;;;;;;;19.23;69.12;101266.28;5096020;28;20318;-65
2023/06/22 01:07:35;;;;;;;;;;;;;;;19.22;69.53;101264.63;5095873;28;19927;-63
2023/06/22 01:10:08;;;;;;;;;;;;;;;19.24;69.90;101269.81;5095451;28;19920;-65
2023/06/22 01:12:44;;;;;;;;;;;;;;;19.28;69.37;101269.19;5095852;28;19920;-65
2023/06/22 01:15:20;;;;;;;;;;;;;;;19.33;69.99;101260.44;5095713;28;19920;-66
2023/06/22 01:17:48;;;;;;;;;;;;;;;19.39;69.92;101263.19;5095578;28;19920;-65
2023/06/22 01:20:14;;;;;;;;;;;;;;;19.47;68.10;101262.94;5094274;28;19928;-64
2023/06/22 01:22:57;;;;;;;;;;;;;;;19.53;67.88;101263.16;5095391;28;20049;-67
2023/06/22 01:25:40;;;;;;;;;;;;;;;19.56;67.61;101263.59;5095512;28;20001;-65
2023/06/22 01:28:32;;;;;;;;;;;;;;;19.58;67.49;101268.78;5095448;28;19920;-64
2023/06/22 01:31:05;;;;;;;;;;;;;;;19.60;67.48;101261.31;5095246;28;19942;-64
2023/06/22 01:33:35;;;;;;;;;;;;;;;19.59;66.95;101263.16;5093106;28;19971;-65
2023/06/22 01:36:01;;;;;;;;;;;;;;;19.58;66.83;101261.50;5095167;28;19962;-66
2023/06/22 01:38:27;;;;;;;;;;;;;;;19.56;67.57;101254.66;5095162;28;19931;-66
2023/06/22 01:40:53;;;;;;;;;;;;;;;19.52;67.25;101253.38;5093715;28;19920;-65
2023/06/22 01:43:19;;;;;;;;;;;;;;;19.47;67.92;101252.16;5094843;28;19965;-65
2023/06/22 01:45:44;;;;;;;;;;;;;;;19.44;67.56;101257.97;5094814;28;19931;-63
2023/06/22 01:48:13;;;;;;;;;;;;;;;19.43;67.78;101255.47;5094992;28;19920;-64
2023/06/22 01:50:38;;;;;;;;;;;;;;;19.42;70.73;101254.66;5094759;28;19924;-64
2023/06/22 01:53:06;;;;;;;;;;;;;;;19.47;68.34;101249.44;5093659;28;19953;-65
2023/06/22 01:55:31;;;;;;;;;;;;;;;19.57;68.34;101245.50;5094808;28;19930;-64
2023/06/22 01:57:57;;;;;;;;;;;;;;;19.67;68.10;101251.34;5094676;28;19920;-63
2023/06/22 02:00:25;;;;;;;;;;;;;;;19.78;66.88;101247.97;5094652;28;20400;-64
2023/06/22 02:03:05;;;;;;;;;;;;;;;19.92;67.07;101255.00;5094761;28;20015;-64
2023/06/22 02:05:35;;;;;;;;;;;;;;;20.04;66.78;101245.22;5094702;28;19963;-65
2023/06/22 02:08:15;;;;;;;;;;;;;;;20.18;66.64;101245.16;5094818;28;20010;-67
2023/06/22 02:10:41;;;;;;;;;;;;;;;20.27;66.66;101244.72;5093174;28;19966;-64
2023/06/22 02:13:08;;;;;;;;;;;;;;;20.36;66.14;101245.28;5094627;28;19919;-64
2023/06/22 02:15:34;;;;;;;;;;;;;;;20.43;66.43;101246.09;5094509;28;19921;-64
2023/06/22 02:18:00;;;;;;;;;;;;;;;20.49;65.88;101242.53;5094530;28;20019;-66
2023/06/22 02:20:45;;;;;;;;;;;;;;;20.56;65.78;101237.94;5093969;28;19920;-65
2023/06/22 02:23:11;;;;;;;;;;;;;;;20.61;66.07;101232.69;5094156;28;20453;-64
2023/06/22 02:25:36;;;;;;;;;;;;;;;20.64;65.78;101234.97;5127558;27;20353;-65
2023/06/22 02:28:02;;;;;;;;;;;;;;;20.67;65.37;101239.13;5094127;28;19920;-65
2023/06/22 02:30:27;;;;;;;;;;;;;;;20.68;64.87;101230.78;5093794;28;20421;-64
2023/06/22 02:32:58;;;;;;;;;;;;;;;20.72;64.44;101229.28;5094022;28;20311;-65
2023/06/22 02:35:35;;;;;;;;;;;;;;;20.75;65.38;101236.16;5094071;28;19989;-66
2023/06/22 02:38:01;;;;;;;;;;;;;;;20.77;64.58;101239.47;5092770;28;19920;-64
2023/06/22 02:40:27;;;;;;;;;;;;;;;20.85;64.11;101230.28;5093996;28;19924;-63
2023/06/22 02:42:52;;;;;;;;;;;;;;;20.94;64.65;101231.66;5093885;28;19928;-64
2023/06/22 02:45:18;;;;;;;;;;;;;;;20.98;64.79;101222.03;5093882;28;19926;-65
2023/06/22 02:47:43;;;;;;;;;;;;;;;21.01;64.69;101227.00;5094055;28;19931;-64
2023/06/22 02:50:09;;;;;;;;;;;;;;;21.13;63.53;101227.97;5093605;28;20275;-66
2023/06/22 02:52:35;;;;;;;;;;;;;;;21.55;62.87;101226.34;5093633;28;19946;-66
2023/06/22 02:55:00;;;;;;;;;;;;;;;22.11;61.88;101219.94;5094067;28;20362;-64
2023/06/22 02:57:25;;;;;;;;;;;;;;;23.12;59.50;101216.41;5093794;28;19920;-63
2023/06/22 02:59:51;;;;;;;;;;;;;;;24.56;55.06;101219.28;5094697;28;20027;-65
2023/06/22 03:02:16;;;;;;;;;;;;;;;25.86;50.76;101217.34;5095984;28;19973;-67
2023/06/22 03:04:42;;;;;;;;;;;;;;;26.90;46.57;101230.00;5096263;28;19920;-66
2023/06/22 03:07:08;;;;;;;;;;;;;;;27.59;43.23;101227.25;5095180;28;19920;-63
2023/06/22 03:09:33;;;;;;;;;;;;;;;28.10;43.71;101231.09;5093454;28;20424;-66
2023/06/22 03:11:58;;;;;;;;;;;;;;;28.46;41.11;101240.28;5093342;28;19920;-65
2023/06/22 03:14:24;;;;;;;;;;;;;;;28.68;41.27;101240.88;5093362;28;19920;-64
2023/06/22 03:16:49;;;;;;;;;;;;;;;28.88;41.21;101245.59;5093602;28;19920;-65
2023/06/22 03:19:14;;;;;;;;;;;;;;;29.06;40.01;101249.72;5094491;28;20009;-67
2023/06/22 03:21:40;;;;;;;;;;;;;;;29.08;40.00;101242.03;5093893;28;19927;-65
2023/06/22 03:24:06;;;;;;;;;;;;;;;29.32;38.99;101236.00;5092744;28;19920;-65
2023/06/22 03:26:31;;;;;;;;;;;;;;;29.66;39.04;101234.31;5096332;28;19928;-66
2023/06/22 03:28:56;;;;;;;;;;;;;;;30.00;39.02;101228.16;5098271;28;19973;-65
2023/06/22 03:31:22;;;;;;;;;;;;;;;30.11;36.57;101227.88;5098177;28;19920;-65
2023/06/22 03:33:49;;;;;;;;;;;;;;;30.08;37.12;101222.13;5093957;28;19981;-63
2023/06/22 03:36:18;;;;;;;;;;;;;;;30.30;37.20;101230.78;5091617;28;19927;-66
2023/06/22 03:38:44;;;;;;;;;;;;;;;30.46;37.42;101226.03;5092882;28;19952;-66
2023/06/22 03:41:09;;;;;;;;;;;;;;;30.30;38.05;101229.97;5092846;28;20331;-64
2023/06/22 03:43:35;;;;;;;;;;;;;;;29.40;38.81;101224.44;5092904;28;19920;-65
2023/06/22 03:46:00;;;;;;;;;;;;;;;28.89;39.38;101219.81;5092788;28;19973;-67
2023/06/22 03:48:25;;;;;;;;;;;;;;;28.97;39.20;101221.22;5092738;28;20329;-66
2023/06/22 03:50:51;;;;;;;;;;;;;;;29.39;38.10;101225.56;5092577;28;20540;-65
2023/06/22 03:53:17;;;;;;;;;;;;;;;29.88;38.26;101221.06;5092721;28;19930;-65
2023/06/22 03:55:48;;;;;;;;;;;;;;;30.40;36.59;101219.75;5092467;28;19919;-66
2023/06/22 03:58:13;;;;;;;;;;;;;;;30.47;36.61;101220.25;5091117;28;19920;-65
2023/06/22 04:00:39;;;;;;;;;;;;;;;30.61;36.26;101222.38;5092398;28;19926;-66
2023/06/22 04:03:04;;;;;;;;;;;;;;;30.60;36.27;101217.97;5092270;28;20387;-64
2023/06/22 04:05:30;;;;;;;;;;;;;;;30.69;36.86;101219.06;5092461;28;20002;-67
2023/06/22 04:07:55;;;;;;;;;;;;;;;30.92;35.99;101210.03;5092682;28;19920;-64
2023/06/22 04:10:20;;;;;;;;;;;;;;;31.03;35.88;101203.38;5092682;28;19927;-66
2023/06/22 04:12:46;;;;;;;;;;;;;;;31.13;35.40;101208.75;5092501;28;20002;-64
2023/06/22 04:15:11;;;;;;;;;;;;;;;31.07;35.35;101201.69;5092167;28;19924;-63
2023/06/22 04:17:37;;;;;;;;;;;;;;;31.22;35.38;101205.41;5092190;28;19926;-66
2023/06/22 04:20:03;;;;;;;;;;;;;;;31.49;34.93;101200.19;5092894;28;19926;-67
2023/06/22 04:22:29;;;;;;;;;;;;;;;31.31;34.43;101201.75;5097649;28;19964;-64
2023/06/22 04:24:55;;;;;;;;;;;;;;;31.08;34.70;101197.81;5097998;28;19974;-65
2023/06/22 04:27:23;;;;;;;;;;;;;;;31.23;35.18;101193.31;5095399;28;20022;-66
2023/06/22 04:29:51;;;;;;;;;;;;;;;31.56;35.00;101197.91;5092157;28;20456;-64
2023/06/22 04:32:17;;;;;;;;;;;;;;;31.63;34.39;101192.88;5090942;28;19920;-66
2023/06/22 04:34:42;;;;;;;;;;;;;;;30.82;35.53;101199.16;5092798;28;19920;-63
2023/06/22 04:37:08;;;;;;;;;;;;;;;29.96;37.26;101191.38;5091121;28;20019;-64
2023/06/22 04:39:33;;;;;;;;;;;;;;;28.98;39.74;101195.44;5092308;28;19963;-67
2023/06/22 04:42:02;;;;;;;;;;;;;;;29.03;39.44;101194.59;5092163;28;20019;-65
2023/06/22 04:44:27;;;;;;;;;;;;;;;29.48;38.88;101202.78;5092082;28;19924;-66
2023/06/22 04:47:08;;;;;;;;;;;;;;;29.71;38.40;101193.13;5092023;28;19942;-66
2023/06/22 04:49:40;;;;;;;;;;;;;;;29.94;37.72;101191.66;5092196;28;19931;-64
2023/06/22 04:52:07;;;;;;;;;;;;;;;30.38;37.15;101189.00;5125125;28;20382;-66
2023/06/22 04:54:33;;;;;;;;;;;;;;;30.76;36.57;101186.53;5090738;28;20268;-64
2023/06/22 04:56:59;;;;;;;;;;;;;;;30.45;37.18;101183.19;5093417;28;19965;-66
2023/06/22 04:59:27;;;;;;;;;;;;;;;29.89;37.52;101181.53;5092585;28;19965;-66
2023/06/22 05:01:53;;;;;;;;;;;;;;;29.99;38.05;101174.34;5091849;28;19920;-66
2023/06/22 05:04:19;;;;;;;;;;;;;;;30.62;36.96;101180.03;5091739;28;19920;-64
2023/06/22 05:06:45;;;;;;;;;;;;;;;31.23;35.95;101176.81;5093139;28;19920;-63
2023/06/22 05:09:11;;;;;;;;;;;;;;;30.48;36.48;101172.44;5095460;28;19978;-65
2023/06/22 05:11:37;;;;;;;;;;;;;;;29.01;39.07;101159.22;5094323;28;20408;-66
2023/06/22 05:14:02;;;;;;;;;;;;;;;27.83;41.41;101165.56;5095385;28;20023;-65
2023/06/22 05:16:28;;;;;;;;;;;;;;;27.64;42.51;101157.00;5095708;28;19992;-64
2023/06/22 05:18:54;;;;;;;;;;;;;;;28.20;41.43;101153.63;5095595;28;19927;-65
2023/06/22 05:21:24;;;;;;;;;;;;;;;29.12;40.12;101151.81;5095797;28;19973;-64
2023/06/22 05:23:49;;;;;;;;;;;;;;;29.46;38.49;101152.03;5095408;28;19920;-66
2023/06/22 05:26:15;;;;;;;;;;;;;;;29.19;39.34;101142.19;5095302;28;19973;-67
2023/06/22 05:28:40;;;;;;;;;;;;;;;28.78;39.63;101137.81;5095166;28;20306;-66
2023/06/22 05:31:05;;;;;;;;;;;;;;;27.82;41.50;101142.03;5095260;28;19988;-65
2023/06/22 05:33:31;;;;;;;;;;;;;;;27.10;43.09;101140.78;5095403;28;19932;-66
2023/06/22 05:35:56;;;;;;;;;;;;;;;26.76;44.12;101136.69;5095204;28;19920;-64
2023/06/22 05:38:21;;;;;;;;;;;;;;;26.51;44.21;101140.00;5093881;28;19924;-66
2023/06/22 05:40:46;;;;;;;;;;;;;;;26.33;44.76;101137.63;5095197;28;19927;-64
2023/06/22 05:43:12;;;;;;;;;;;;;;;26.33;44.76;101129.44;5094831;28;19927;-64
2023/06/22 05:45:37;;;;;;;;;;;;;;;26.38;44.76;101126.78;5128077;27;19920;-68
2023/06/22 05:48:03;;;;;;;;;;;;;;;26.51;44.75;101120.88;5094762;28;20358;-67
2023/06/22 05:50:28;;;;;;;;;;;;;;;26.55;44.37;101116.56;5094959;28;19949;-66
2023/06/22 05:52:53;;;;;;;;;;;;;;;26.60;44.66;101119.34;5076704;28;19928;-66
2023/06/22 05:55:19;;;;;;;;;;;;;;;26.43;45.12;101114.00;5094761;28;19920;-66
2023/06/22 05:57:44;;;;;;;;;;;;;;;26.06;45.69;101119.34;5094386;28;20379;-63
2023/06/22 06:00:11;;;;;;;;;;;;;;;25.95;46.24;101114.84;5094617;28;19920;-65
2023/06/22 06:02:36;;;;;;;;;;;;;;;25.93;45.98;101111.53;5094445;28;20375;-64
2023/06/22 06:05:03;;;;;;;;;;;;;;;25.99;46.06;101110.50;5094612;28;19931;-65
2023/06/22 06:07:29;;;;;;;;;;;;;;;26.11;45.86;101104.91;5094956;28;20467;-64
2023/06/22 06:09:55;;;;;;;;;;;;;;;26.27;45.93;101103.16;5094428;28;19924;-65
2023/06/22 06:12:20;;;;;;;;;;;;;;;26.18;44.50;101095.44;5094342;28;19965;-67
2023/06/22 06:14:47;;;;;;;;;;;;;;;25.88;46.06;101092.38;5094458;28;19920;-64
2023/06/22 06:17:12;;;;;;;;;;;;;;;25.71;46.39;101095.19;5093959;28;19925;-65
2023/06/22 06:19:38;;;;;;;;;;;;;;;25.58;46.93;101088.19;5092671;28;19927;-65
2023/06/22 06:22:03;;;;;;;;;;;;;;;25.56;46.90;101082.16;5094648;28;19966;-66
2023/06/22 06:24:28;;;;;;;;;;;;;;;25.70;46.93;101084.53;5094035;28;19927;-63
2023/06/22 06:26:54;;;;;;;;;;;;;;;25.84;46.63;101083.91;5093746;28;20405;-67
2023/06/22 06:29:19;;;;;;;;;;;;;;;26.00;46.31;101071.22;5092629;28;19927;-65
2023/06/22 06:31:44;;;;;;;;;;;;;;;26.12;46.08;101080.09;5094180;28;20055;-63
2023/06/22 06:34:10;;;;;;;;;;;;;;;26.17;45.70;101063.75;5094073;28;19920;-66
2023/06/22 06:36:35;;;;;;;;;;;;;;;26.17;45.47;101066.50;5093947;28;19927;-66
2023/06/22 06:39:01;;;;;;;;;;;;;;;26.19;45.03;101069.78;5094216;28;19973;-67
2023/06/22 06:41:26;;;;;;;;;;;;;;;26.15;45.30;101070.56;5093887;28;19928;-66
2023/06/22 06:43:51;;;;;;;;;;;;;;;26.18;45.21;101070.88;5093825;28;19924;-65
2023/06/22 06:46:18;;;;;;;;;;;;;;;26.18;45.39;101059.94;5093805;28;19920;-66
2023/06/22 06:48:45;;;;;;;;;;;;;;;26.21;45.68;101051.22;5093752;28;19924;-62
2023/06/22 06:51:10;;;;;;;;;;;;;;;26.20;45.38;101055.03;5126369;27;19923;-65
2023/06/22 06:53:36;;;;;;;;;;;;;;;26.11;45.82;101048.41;5093567;28;19973;-68
2023/06/22 06:56:02;;;;;;;;;;;;;;;26.00;46.78;101051.28;5093263;28;20295;-64
2023/06/22 06:58:28;;;;;;;;;;;;;;;25.90;46.67;101043.84;5093251;28;19924;-65
2023/06/22 07:00:53;;;;;;;;;;;;;;;25.89;46.27;101048.47;5093733;28;19927;-65
2023/06/22 07:03:19;;;;;;;;;;;;;;;25.88;46.47;101051.47;5093908;28;19920;-64
2023/06/22 07:05:44;;;;;;;;;;;;;;;25.87;46.58;101058.81;5093538;28;19920;-65
2023/06/22 07:08:10;;;;;;;;;;;;;;;25.93;46.94;101060.50;5093290;28;19927;-66
2023/06/22 07:10:35;;;;;;;;;;;;;;;26.07;46.82;101055.47;5093247;28;19920;-66
2023/06/22 07:13:01;;;;;;;;;;;;;;;26.13;45.43;101059.06;5093122;28;19958;-65
2023/06/22 07:15:26;;;;;;;;;;;;;;;26.16;45.76;101053.91;5093341;28;20398;-65
2023/06/22 07:17:51;;;;;;;;;;;;;;;26.19;45.93;101047.94;5093075;28;20332;-66
2023/06/22 07:20:17;;;;;;;;;;;;;;;26.25;45.12;101052.34;5093175;28;19920;-66
2023/06/22 07:22:43;;;;;;;;;;;;;;;26.25;45.81;101052.34;5093204;28;19927;-65
2023/06/22 07:25:14;;;;;;;;;;;;;;;26.25;45.46;101049.63;5093005;28;19931;-64
2023/06/22 07:27:42;;;;;;;;;;;;;;;26.21;45.58;101040.31;5093069;28;19927;-65
2023/06/22 07:30:08;;;;;;;;;;;;;;;26.18;45.48;101043.56;5092745;28;20349;-66
2023/06/22 07:32:34;;;;;;;;;;;;;;;26.20;45.22;101044.13;5092386;28;19919;-66
2023/06/22 07:34:59;;;;;;;;;;;;;;;26.23;45.15;101031.88;5093299;28;20405;-66
2023/06/22 07:37:24;;;;;;;;;;;;;;;26.27;45.18;101032.97;5093192;28;19920;-64
2023/06/22 07:39:53;;;;;;;;;;;;;;;26.33;45.59;101031.16;5091391;28;20504;-65
2023/06/22 07:42:19;;;;;;;;;;;;;;;26.30;45.16;101026.19;5092741;28;19977;-66
2023/06/22 07:44:44;;;;;;;;;;;;;;;26.23;45.67;101021.75;5091536;28;19920;-67
2023/06/22 07:47:09;;;;;;;;;;;;;;;26.17;45.70;101016.53;5092943;28;19920;-66
2023/06/22 07:49:35;;;;;;;;;;;;;;;26.13;46.02;101010.78;5092415;28;20304;-66
2023/06/22 07:52:04;;;;;;;;;;;;;;;26.20;46.11;101014.09;5091972;28;21359;-65
2023/06/22 07:54:30;;;;;;;;;;;;;;;26.29;45.96;101003.50;5092556;28;19924;-65
2023/06/22 07:56:55;;;;;;;;;;;;;;;26.36;45.58;101003.34;5091478;28;19973;-66
2023/06/22 07:59:20;;;;;;;;;;;;;;;26.44;46.11;101000.94;5092756;28;19927;-67
2023/06/22 08:01:49;;;;;;;;;;;;;;;26.53;45.84;101009.47;5092667;28;20461;-65
2023/06/22 08:04:14;;;;;;;;;;;;;;;26.57;46.31;101004.28;5092706;28;19965;-67
2023/06/22 08:06:39;;;;;;;;;;;;;;;26.51;46.08;100996.06;5092573;28;19920;-65
2023/06/22 08:09:05;;;;;;;;;;;;;;;26.54;46.46;101000.19;5092448;28;19974;-66
2023/06/22 08:11:30;;;;;;;;;;;;;;;26.62;46.45;100998.91;5092550;28;19920;-66
2023/06/22 08:13:57;;;;;;;;;;;;;;;26.68;45.27;100995.91;5091261;28;19921;-64
2023/06/22 08:16:23;;;;;;;;;;;;;;;26.68;45.28;100990.47;5092675;28;19920;-65
2023/06/22 08:18:48;;;;;;;;;;;;;;;26.73;45.22;100993.22;5092302;28;20296;-65
2023/06/22 08:21:13;;;;;;;;;;;;;;;26.70;46.21;100988.28;5092300;28;20401;-65
2023/06/22 08:23:39;;;;;;;;;;;;;;;26.70;46.45;100984.72;5092227;28;19920;-66
2023/06/22 08:26:04;;;;;;;;;;;;;;;26.79;46.42;100985.88;5091471;28;20025;-65
2023/06/22 08:28:29;;;;;;;;;;;;;;;26.91;44.77;100980.22;5092192;28;20397;-66
2023/06/22 08:30:55;;;;;;;;;;;;;;;27.00;44.99;100970.44;5092467;28;19920;-63
2023/06/22 08:33:23;;;;;;;;;;;;;;;27.00;44.45;100970.44;5092398;28;20486;-66
2023/06/22 08:35:49;;;;;;;;;;;;;;;27.02;44.67;100969.06;5092279;28;19920;-65
2023/06/22 08:38:15;;;;;;;;;;;;;;;26.98;44.83;100967.13;5092268;28;19920;-64
2023/06/22 08:40:40;;;;;;;;;;;;;;;26.89;44.93;100963.22;5092209;28;19928;-64
2023/06/22 08:43:06;;;;;;;;;;;;;;;26.95;44.99;100964.91;5092750;28;19955;-67
2023/06/22 08:45:31;;;;;;;;;;;;;;;27.05;44.39;100959.50;5096122;28;20356;-65
2023/06/22 08:47:57;;;;;;;;;;;;;;;27.16;45.11;100958.44;5095581;28;19920;-65
2023/06/22 08:50:23;;;;;;;;;;;;;;;27.27;44.10;100949.22;5095864;28;19925;-67
2023/06/22 08:52:49;;;;;;;;;;;;;;;27.34;44.41;100952.50;5096069;28;20490;-65
2023/06/22 08:55:14;;;;;;;;;;;;;;;27.48;44.24;100946.53;5096157;28;19920;-67
2023/06/22 08:57:40;;;;;;;;;;;;;;;27.59;44.00;100949.00;5077856;28;19966;-66
2023/06/22 09:00:11;;;;;;;;;;;;;;;27.62;43.97;100945.75;5096456;28;19927;-65
2023/06/22 09:02:36;;;;;;;;;;;;;;;27.56;44.38;100938.63;5096539;28;19927;-66
2023/06/22 09:05:03;;;;;;;;;;;;;;;27.62;44.88;100937.56;5095594;28;20306;-65
2023/06/22 09:07:28;;;;;;;;;;;;;;;27.73;44.04;100941.13;5095393;28;20379;-64
2023/06/22 09:09:55;;;;;;;;;;;;;;;27.79;43.73;100937.31;5095576;28;19920;-63
2023/06/22 09:12:25;;;;;;;;;;;;;;;27.84;43.71;100937.31;5095628;28;20280;-64
2023/06/22 09:14:50;;;;;;;;;;;;;;;27.85;43.44;100933.47;5095525;28;20460;-65
2023/06/22 09:17:16;;;;;;;;;;;;;;;27.90;42.98;100938.13;5095585;28;19919;-66
2023/06/22 09:19:41;;;;;;;;;;;;;;;27.92;43.17;100938.66;5095508;28;19971;-64
2023/06/22 09:22:07;;;;;;;;;;;;;;;27.83;42.65;100930.19;5095256;28;20394;-64
2023/06/22 09:24:32;;;;;;;;;;;;;;;27.88;43.20;100932.94;5095206;28;20422;-67
2023/06/22 09:26:58;;;;;;;;;;;;;;;28.10;43.42;100934.56;5095670;28;20271;-65
2023/06/22 09:29:23;;;;;;;;;;;;;;;28.33;42.81;100934.81;5094024;28;20415;-66
2023/06/22 09:31:49;;;;;;;;;;;;;;;28.53;42.40;100923.00;5110810;28;19920;-65
2023/06/22 09:34:14;;;;;;;;;;;;;;;28.71;42.26;100929.00;5128046;27;19920;-66
2023/06/22 09:36:41;;;;;;;;;;;;;;;28.78;41.80;100930.34;5094990;28;19920;-65
2023/06/22 09:39:06;;;;;;;;;;;;;;;28.86;41.90;100928.97;5095181;28;19965;-65
2023/06/22 09:41:32;;;;;;;;;;;;;;;29.01;41.98;100923.44;5095054;28;20027;-64
2023/06/22 09:43:57;;;;;;;;;;;;;;;29.12;41.52;100925.00;5094999;28;19926;-65
2023/06/22 09:46:25;;;;;;;;;;;;;;;29.05;41.33;100927.25;5093572;28;19927;-65
2023/06/22 09:48:50;;;;;;;;;;;;;;;28.87;41.43;100916.91;5094684;28;20442;-66
2023/06/22 09:51:16;;;;;;;;;;;;;;;28.84;42.30;100906.47;5094620;28;20065;-66
2023/06/22 09:53:41;;;;;;;;;;;;;;;28.91;41.73;100912.47;5094639;28;19928;-67
2023/06/22 09:56:06;;;;;;;;;;;;;;;28.92;41.91;100908.69;5094226;28;20019;-65
2023/06/22 09:58:32;;;;;;;;;;;;;;;28.86;41.79;100896.88;5095757;28;20449;-67
2023/06/22 10:00:57;;;;;;;;;;;;;;;28.71;42.30;100890.63;5096372;28;19920;-64
2023/06/22 10:03:23;;;;;;;;;;;;;;;28.55;42.83;100893.41;5129093;27;19924;-66
2023/06/22 10:05:48;;;;;;;;;;;;;;;28.52;42.73;100888.50;5095290;28;20279;-67
2023/06/22 10:08:13;;;;;;;;;;;;;;;28.56;43.07;100888.75;5093321;28;19920;-67
2023/06/22 10:10:39;;;;;;;;;;;;;;;28.66;42.48;100875.84;5094552;28;20362;-66
2023/06/22 10:13:11;;;;;;;;;;;;;;;28.68;42.10;100875.56;5094564;28;19956;-63
2023/06/22 10:15:37;;;;;;;;;;;;;;;28.61;42.15;100870.38;5092604;28;19920;-66
2023/06/22 10:18:02;;;;;;;;;;;;;;;28.69;42.73;100866.25;5094189;28;19976;-67
2023/06/22 10:20:28;;;;;;;;;;;;;;;28.84;42.30;100865.34;5093964;28;20050;-66
2023/06/22 10:22:53;;;;;;;;;;;;;;;28.95;41.67;100861.50;5094351;28;19927;-64
2023/06/22 10:25:18;;;;;;;;;;;;;;;28.96;39.97;100858.47;5094619;28;19920;-65
2023/06/22 10:27:44;;;;;;;;;;;;;;;28.98;39.52;100859.00;5094291;28;19927;-67
2023/06/22 10:30:12;;;;;;;;;;;;;;;28.99;38.88;100854.34;5093942;28;19920;-66
2023/06/22 10:32:38;;;;;;;;;;;;;;;28.76;39.42;100849.50;5093851;28;19927;-65
2023/06/22 10:35:04;;;;;;;;;;;;;;;28.60;39.71;100835.84;5093865;28;20365;-66
2023/06/22 10:37:29;;;;;;;;;;;;;;;28.59;39.92;100838.88;5093964;28;19959;-67
2023/06/22 10:39:54;;;;;;;;;;;;;;;28.54;40.09;100833.41;5092661;28;20014;-66
2023/06/22 10:42:20;;;;;;;;;;;;;;;28.48;40.29;100831.81;5092764;28;19920;-65
2023/06/22 10:44:46;;;;;;;;;;;;;;;28.31;40.76;100824.72;5092503;28;19919;-65
2023/06/22 10:47:11;;;;;;;;;;;;;;;28.26;41.25;100829.41;5093639;28;19920;-65
2023/06/22 10:49:38;;;;;;;;;;;;;;;28.21;41.46;100823.91;5093959;28;19977;-67
2023/06/22 10:52:05;;;;;;;;;;;;;;;28.20;41.43;100828.56;5093522;28;19931;-64
2023/06/22 10:54:30;;;;;;;;;;;;;;;28.17;41.96;100847.47;5093469;28;20038;-66
2023/06/22 10:56:55;;;;;;;;;;;;;;;28.04;42.12;100860.63;5093802;28;20350;-65
2023/06/22 10:59:23;;;;;;;;;;;;;;;26.94;59.42;100982.41;5094002;28;19965;-67
2023/06/22 11:01:48;;;;;;;;;;;;;;;23.71;73.54;100888.25;5092776;28;19928;-66
2023/06/22 11:04:14;;;;;;;;;;;;;;;22.18;86.85;100875.34;5093352;28;19920;-66
2023/06/22 11:06:39;;;;;;;;;;;;;;;21.76;82.26;100856.44;5091361;28;19924;-65
2023/06/22 11:09:04;;;;;;;;;;;;;;;21.86;88.22;100840.41;5093416;28;20077;-66
2023/06/22 11:11:30;;;;;;;;;;;;;;;22.08;84.19;100845.28;5093233;28;19949;-67
2023/06/22 11:13:55;;;;;;;;;;;;;;;22.41;84.53;100831.09;5093237;28;19920;-66
2023/06/22 11:16:20;;;;;;;;;;;;;;;22.69;86.42;100828.41;5092086;28;19936;-65
2023/06/22 11:18:45;;;;;;;;;;;;;;;22.97;87.90;100824.09;5094059;28;20375;-66
2023/06/22 11:21:11;;;;;;;;;;;;;;;23.25;83.81;100817.81;5097094;28;19977;-67
2023/06/22 11:23:36;;;;;;;;;;;;;;;23.62;78.42;100816.31;5097306;28;19920;-68
2023/06/22 11:26:02;;;;;;;;;;;;;;;24.08;81.31;100828.72;5095159;28;19924;-63
2023/06/22 11:28:27;;;;;;;;;;;;;;;24.49;75.20;100823.84;5093342;28;19930;-64
2023/06/22 11:30:53;;;;;;;;;;;;;;;24.81;84.98;100829.41;5093106;28;19920;-66
2023/06/22 11:33:18;;;;;;;;;;;;;;;25.10;78.57;100827.28;5093040;28;19924;-65
2023/06/22 11:35:43;;;;;;;;;;;;;;;25.25;78.87;100821.19;5092901;28;19920;-65
2023/06/22 11:38:09;;;;;;;;;;;;;;;25.35;76.78;100817.72;5093086;28;19920;-66
2023/06/22 11:40:34;;;;;;;;;;;;;;;25.41;75.23;100817.50;5092917;28;19920;-65
2023/06/22 11:42:59;;;;;;;;;;;;;;;25.42;74.97;100824.59;5093045;28;19963;-66
2023/06/22 11:45:24;;;;;;;;;;;;;;;25.45;73.90;100818.66;5092894;28;20443;-64
2023/06/22 11:47:50;;;;;;;;;;;;;;;25.50;73.35;100806.97;5091241;28;19927;-64
2023/06/22 11:50:17;;;;;;;;;;;;;;;25.56;70.51;100814.09;5092472;28;19924;-67
2023/06/22 11:52:42;;;;;;;;;;;;;;;25.56;65.92;100812.19;5108451;28;20343;-64
2023/06/22 11:55:07;;;;;;;;;;;;;;;25.61;67.35;100800.50;5092492;28;19931;-65
2023/06/22 11:57:34;;;;;;;;;;;;;;;25.68;67.32;100801.13;5092546;28;19920;-66
2023/06/22 11:59:59;;;;;;;;;;;;;;;25.79;67.37;100797.41;5093127;28;19930;-67
2023/06/22 12:02:24;;;;;;;;;;;;;;;25.89;65.69;100796.63;5091783;28;20022;-65
2023/06/22 12:04:52;;;;;;;;;;;;;;;26.04;67.99;100796.72;5092434;28;20018;-67
2023/06/22 12:07:17;;;;;;;;;;;;;;;26.05;66.49;100790.19;5092551;28;19959;-67
2023/06/22 12:09:43;;;;;;;;;;;;;;;26.06;65.85;100797.28;5091236;28;20389;-65
2023/06/22 12:12:09;;;;;;;;;;;;;;;26.07;64.75;100793.47;5092385;28;19952;-64
2023/06/22 12:14:34;;;;;;;;;;;;;;;25.97;62.37;100796.13;5092833;28;19920;-65
2023/06/22 12:16:59;;;;;;;;;;;;;;;25.87;64.70;100783.25;5092316;28;20317;-66
2023/06/22 12:19:25;;;;;;;;;;;;;;;25.89;63.48;100780.25;5096473;28;19927;-64
2023/06/22 12:21:50;;;;;;;;;;;;;;;26.02;62.96;100779.81;5096859;28;19920;-64
2023/06/22 12:24:15;;;;;;;;;;;;;;;26.23;61.95;100781.53;5097378;28;19920;-63
2023/06/22 12:26:41;;;;;;;;;;;;;;;26.36;61.50;100766.63;5097867;28;20427;-65
2023/06/22 12:29:06;;;;;;;;;;;;;;;26.54;62.14;100777.03;5096187;28;20314;-65
2023/06/22 12:31:32;;;;;;;;;;;;;;;26.72;64.36;100772.19;5079554;28;19975;-66